createdAt,value
2023-05-12T00:00:24.759Z,13.25
2023-05-12T00:02:26.600Z,13.25
2023-05-12T00:04:28.201Z,13.28
2023-05-12T00:06:29.804Z,13.30
2023-05-12T00:08:31.474Z,13.30
2023-05-12T00:10:33.107Z,13.31
2023-05-12T00:12:34.635Z,13.30
2023-05-12T00:14:36.918Z,13.25
2023-05-12T00:16:38.504Z,13.29
2023-05-12T00:18:40.105Z,13.31
2023-05-12T00:20:41.778Z,13.21
2023-05-12T00:22:43.471Z,13.19
2023-05-12T00:24:45.051Z,13.17
2023-05-12T00:26:46.598Z,13.14
2023-05-12T00:28:48.779Z,13.12
2023-05-12T00:30:50.465Z,13.11
2023-05-12T00:32:52.094Z,13.08
2023-05-12T00:34:54.585Z,13.03
2023-05-12T00:36:56.121Z,13.02
2023-05-12T00:38:58.482Z,13.01
2023-05-12T00:41:01.275Z,12.99
2023-05-12T00:43:02.776Z,12.95
2023-05-12T00:45:05.816Z,12.94
2023-05-12T00:47:07.881Z,12.94
2023-05-12T00:49:09.452Z,12.93
2023-05-12T00:51:12.553Z,12.92
2023-05-12T00:53:14.207Z,12.91
2023-05-12T00:55:16.349Z,12.87
2023-05-12T00:57:19.107Z,12.88
2023-05-12T00:59:20.688Z,12.87
2023-05-12T01:01:22.379Z,12.82
2023-05-12T01:03:24.185Z,12.79
2023-05-12T01:05:36.132Z,12.79
2023-05-12T01:07:39.176Z,12.78
2023-05-12T01:09:40.780Z,12.74
2023-05-12T01:11:42.322Z,12.75
2023-05-12T01:13:43.949Z,12.74
2023-05-12T01:15:47.875Z,12.73
2023-05-12T01:18:02.016Z,12.70
2023-05-12T01:20:06.140Z,12.71
2023-05-12T01:22:09.312Z,12.73
2023-05-12T01:24:12.171Z,12.71
2023-05-12T01:26:13.824Z,12.71
2023-05-12T01:28:16.658Z,12.67
2023-05-12T01:30:20.119Z,12.68
2023-05-12T01:32:22.340Z,12.68
2023-05-12T01:34:23.992Z,12.65
2023-05-12T01:36:25.525Z,12.66
2023-05-12T01:38:27.520Z,12.63
2023-05-12T01:40:29.124Z,12.65
2023-05-12T01:42:30.612Z,12.65
2023-05-12T01:44:32.229Z,12.64
2023-05-12T01:46:33.801Z,12.63
2023-05-12T01:48:35.443Z,12.62
2023-05-12T01:50:36.969Z,12.61
2023-05-12T01:52:38.456Z,12.62
2023-05-12T01:54:40.162Z,12.64
2023-05-12T01:56:42.085Z,12.62
2023-05-12T01:58:43.619Z,12.61
2023-05-12T02:00:45.204Z,12.59
2023-05-12T02:02:46.846Z,12.60
2023-05-12T02:04:48.444Z,12.58
2023-05-12T02:06:49.975Z,12.57
2023-05-12T02:08:51.788Z,12.56
2023-05-12T02:11:08.352Z,12.54
2023-05-12T02:13:09.858Z,12.49
2023-05-12T02:15:11.587Z,12.53
2023-05-12T02:17:13.250Z,12.52
2023-05-12T02:19:14.748Z,12.51
2023-05-12T02:21:16.389Z,12.51
2023-05-12T02:23:17.968Z,12.52
2023-05-12T02:25:19.507Z,12.47
2023-05-12T02:27:21.160Z,12.47
2023-05-12T02:29:23.107Z,12.48
2023-05-12T02:31:24.679Z,12.49
2023-05-12T02:33:26.854Z,12.51
2023-05-12T02:35:28.479Z,12.49
2023-05-12T02:37:29.978Z,12.47
2023-05-12T02:39:31.578Z,12.47
2023-05-12T02:41:33.148Z,12.46
2023-05-12T02:43:34.655Z,12.44
2023-05-12T02:45:36.416Z,12.44
2023-05-12T02:47:38.011Z,12.45
2023-05-12T02:49:39.618Z,12.41
2023-05-12T02:51:41.114Z,12.36
2023-05-12T02:53:42.641Z,12.38
2023-05-12T02:55:44.220Z,12.38
2023-05-12T02:57:45.865Z,12.38
2023-05-12T02:59:47.453Z,12.37
2023-05-12T03:01:49.047Z,12.31
2023-05-12T03:03:50.738Z,12.34
2023-05-12T03:05:53.445Z,12.32
2023-05-12T03:07:55.000Z,12.32
2023-05-12T03:09:57.748Z,12.25
2023-05-12T03:11:59.277Z,12.26
2023-05-12T03:14:00.829Z,12.25
2023-05-12T03:16:02.433Z,12.25
2023-05-12T03:18:04.180Z,12.23
2023-05-12T03:20:06.863Z,12.24
2023-05-12T03:22:08.698Z,12.24
2023-05-12T03:24:10.462Z,12.22
2023-05-12T03:26:11.991Z,12.18
2023-05-12T03:28:13.513Z,12.16
2023-05-12T03:30:15.137Z,12.17
2023-05-12T03:32:16.799Z,12.13
2023-05-12T03:34:18.928Z,12.14
2023-05-12T03:36:20.495Z,12.11
2023-05-12T03:38:22.329Z,12.11
2023-05-12T03:40:23.920Z,12.09
2023-05-12T03:42:25.500Z,12.05
2023-05-12T03:44:27.053Z,12.05
2023-05-12T03:46:29.008Z,12.03
2023-05-12T03:48:30.615Z,12.02
2023-05-12T03:50:32.175Z,12.03
2023-05-12T03:52:33.839Z,11.97
2023-05-12T03:54:37.217Z,12.00
2023-05-12T03:56:39.580Z,11.97
2023-05-12T03:58:41.125Z,11.97
2023-05-12T04:00:44.154Z,11.97
2023-05-12T04:02:46.506Z,12.01
2023-05-12T04:04:48.217Z,12.00
2023-05-12T04:06:49.817Z,12.01
2023-05-12T04:08:51.357Z,12.00
2023-05-12T04:10:56.164Z,12.02
2023-05-12T04:12:57.749Z,12.00
2023-05-12T04:14:59.718Z,11.98
2023-05-12T04:17:01.390Z,12.03
2023-05-12T04:19:03.412Z,12.02
2023-05-12T04:21:05.538Z,12.04
2023-05-12T04:23:07.436Z,12.05
2023-05-12T04:25:09.992Z,12.10
2023-05-12T04:27:11.761Z,12.11
2023-05-12T04:29:13.422Z,12.09
2023-05-12T04:31:14.984Z,12.08
2023-05-12T04:33:16.554Z,12.12
2023-05-12T04:35:18.157Z,12.14
2023-05-12T04:37:19.721Z,12.12
2023-05-12T04:39:21.380Z,12.14
2023-05-12T04:41:22.911Z,12.15
2023-05-12T04:45:28.879Z,12.19
2023-05-12T04:47:30.504Z,12.22
2023-05-12T04:49:32.079Z,12.23
2023-05-12T04:51:33.654Z,12.26
2023-05-12T04:53:36.315Z,12.25
2023-05-12T04:55:37.888Z,12.30
2023-05-12T04:57:41.446Z,12.33
2023-05-12T04:59:43.236Z,12.33
2023-05-12T05:01:44.799Z,12.34
2023-05-12T05:03:46.469Z,12.37
2023-05-12T05:05:49.081Z,12.41
2023-05-12T05:07:50.701Z,12.41
2023-05-12T05:09:52.294Z,12.46
2023-05-12T05:11:53.947Z,12.52
2023-05-12T05:13:55.628Z,12.52
2023-05-12T05:15:57.225Z,12.59
2023-05-12T05:18:01.744Z,12.60
2023-05-12T05:20:09.499Z,12.62
2023-05-12T05:22:13.359Z,12.65
2023-05-12T05:24:15.045Z,12.66
2023-05-12T05:26:16.607Z,12.70
2023-05-12T05:28:18.144Z,12.69
2023-05-12T05:30:19.780Z,12.70
2023-05-12T05:32:21.853Z,12.78
2023-05-12T05:34:23.514Z,12.80
2023-05-12T05:36:29.936Z,12.82
2023-05-12T05:38:32.726Z,12.90
2023-05-12T05:40:48.819Z,12.92
2023-05-12T05:42:54.276Z,12.97
2023-05-12T05:44:56.386Z,13.08
2023-05-12T05:46:58.768Z,13.22
2023-05-12T05:49:00.374Z,13.24
2023-05-12T05:51:02.319Z,13.33
2023-05-12T05:53:03.858Z,13.30
2023-05-12T05:55:05.680Z,13.36
2023-05-12T05:57:07.321Z,13.42
2023-05-12T05:59:09.882Z,13.37
2023-05-12T06:01:11.789Z,13.43
2023-05-12T06:03:13.530Z,13.44
2023-05-12T06:05:15.193Z,13.44
2023-05-12T06:07:16.749Z,13.44
2023-05-12T06:09:18.315Z,13.52
2023-05-12T06:11:19.851Z,13.54
2023-05-12T06:13:22.587Z,13.49
2023-05-12T06:15:24.109Z,13.46
2023-05-12T06:17:25.785Z,13.43
2023-05-12T06:19:27.341Z,13.47
2023-05-12T06:21:28.932Z,13.38
2023-05-12T06:23:30.707Z,13.26
2023-05-12T06:25:33.324Z,13.33
2023-05-12T06:27:34.963Z,13.35
2023-05-12T06:29:36.499Z,13.38
2023-05-12T06:31:38.094Z,13.31
2023-05-12T06:33:39.743Z,13.32
2023-05-12T06:35:41.276Z,13.28
2023-05-12T06:37:44.898Z,13.27
2023-05-12T06:39:46.384Z,13.34
2023-05-12T06:41:47.911Z,13.31
2023-05-12T06:43:49.438Z,13.31
2023-05-12T06:45:51.482Z,13.28
2023-05-12T06:47:53.133Z,13.28
2023-05-12T06:49:54.721Z,13.18
2023-05-12T06:51:56.489Z,13.26
2023-05-12T06:53:58.075Z,13.29
2023-05-12T06:55:59.596Z,13.30
2023-05-12T06:58:01.180Z,13.36
2023-05-12T07:00:03.520Z,13.40
2023-05-12T07:02:05.290Z,13.40
2023-05-12T07:04:07.984Z,13.45
2023-05-12T07:06:09.751Z,13.50
2023-05-12T07:08:11.299Z,13.51
2023-05-12T07:10:12.886Z,13.56
2023-05-12T07:12:14.462Z,13.58
2023-05-12T07:14:15.951Z,13.52
2023-05-12T07:16:19.383Z,13.61
2023-05-12T07:18:21.065Z,13.65
2023-05-12T07:20:22.870Z,13.66
2023-05-12T07:22:24.404Z,13.66
2023-05-12T07:24:26.085Z,13.80
2023-05-12T07:26:29.282Z,13.95
2023-05-12T07:28:32.469Z,14.02
2023-05-12T07:30:34.034Z,14.06
2023-05-12T07:32:35.584Z,14.03
2023-05-12T07:34:38.366Z,14.08
2023-05-12T07:36:39.848Z,14.13
2023-05-12T07:38:41.700Z,14.23
2023-05-12T07:40:44.641Z,14.28
2023-05-12T07:42:46.220Z,14.30
2023-05-12T07:44:48.002Z,14.26
2023-05-12T07:46:49.624Z,14.39
2023-05-12T07:48:51.151Z,14.56
2023-05-12T07:50:52.976Z,14.69
2023-05-12T07:52:54.610Z,14.79
2023-05-12T07:54:57.707Z,14.82
2023-05-12T07:56:59.238Z,14.98
2023-05-12T07:59:01.223Z,15.01
2023-05-12T08:01:06.012Z,15.11
2023-05-12T08:03:07.759Z,15.23
2023-05-12T08:05:10.720Z,15.22
2023-05-12T08:07:12.248Z,15.39
2023-05-12T08:09:13.824Z,15.53
2023-05-12T08:11:15.454Z,15.52
2023-05-12T08:13:17.081Z,15.61
2023-05-12T08:15:18.823Z,15.48
2023-05-12T08:17:20.594Z,15.48
2023-05-12T08:19:22.211Z,15.51
2023-05-12T08:21:24.077Z,15.58
2023-05-12T08:23:25.692Z,15.58
2023-05-12T08:25:30.301Z,15.60
2023-05-12T08:27:31.998Z,15.75
2023-05-12T08:29:33.622Z,15.85
2023-05-12T08:31:35.534Z,15.79
2023-05-12T08:33:37.309Z,15.97
2023-05-12T08:35:39.194Z,16.02
2023-05-12T08:37:40.833Z,15.98
2023-05-12T08:39:42.420Z,16.04
2023-05-12T08:41:51.467Z,16.05
2023-05-12T08:43:53.224Z,16.23
2023-05-12T08:45:57.724Z,16.21
2023-05-12T08:48:00.964Z,16.44
2023-05-12T08:50:04.426Z,16.64
2023-05-12T08:52:07.812Z,16.66
2023-05-12T08:54:10.602Z,16.72
2023-05-12T08:58:20.117Z,16.84
2023-05-12T09:00:28.718Z,16.83
2023-05-12T09:02:44.735Z,16.80
2023-05-12T09:04:54.977Z,16.64
2023-05-12T09:06:58.231Z,16.83
2023-05-12T09:09:00.364Z,17.04
2023-05-12T09:11:02.544Z,17.05
2023-05-12T09:13:19.642Z,17.05
2023-05-12T09:15:29.636Z,17.21
2023-05-12T09:17:31.205Z,17.33
2023-05-12T09:19:35.576Z,17.09
2023-05-12T09:21:37.500Z,17.31
2023-05-12T09:23:40.112Z,17.23
2023-05-12T09:25:41.950Z,17.35
2023-05-12T09:27:44.033Z,17.37
2023-05-12T09:29:59.297Z,17.53
2023-05-12T09:32:03.865Z,17.53
2023-05-12T09:34:10.129Z,17.72
2023-05-12T09:36:12.830Z,17.91
2023-05-12T09:38:14.777Z,18.04
2023-05-12T09:40:16.390Z,17.93
2023-05-12T09:42:18.221Z,18.15
2023-05-12T09:44:20.791Z,18.17
2023-05-12T09:46:24.685Z,18.19
2023-05-12T09:48:27.548Z,17.90
2023-05-12T09:50:40.835Z,18.06
2023-05-12T09:52:45.970Z,17.99
2023-05-12T09:54:47.798Z,18.14
2023-05-12T09:56:49.768Z,18.26
2023-05-12T09:58:51.315Z,18.21
2023-05-12T10:02:59.123Z,18.13
2023-05-12T10:05:06.246Z,17.91
2023-05-12T10:07:11.896Z,18.29
2023-05-12T10:09:20.705Z,18.54
2023-05-12T10:11:22.984Z,18.60
2023-05-12T10:13:24.600Z,18.77
2023-05-12T10:15:27.353Z,18.76
2023-05-12T10:17:29.630Z,19.05
2023-05-12T10:19:31.422Z,19.21
2023-05-12T10:21:33.595Z,19.41
2023-05-12T10:23:38.091Z,19.49
2023-05-12T10:25:42.444Z,19.57
2023-05-12T10:27:44.786Z,19.60
2023-05-12T10:29:48.169Z,19.80
2023-05-12T10:31:50.173Z,19.86
2023-05-12T10:33:59.589Z,20.54
2023-05-12T10:36:01.226Z,20.68
2023-05-12T10:38:10.518Z,20.46
2023-05-12T10:40:22.705Z,20.78
2023-05-12T10:42:25.790Z,20.83
2023-05-12T10:44:28.630Z,20.81
2023-05-12T10:46:30.812Z,21.19
2023-05-12T10:48:32.599Z,21.47
2023-05-12T10:50:34.515Z,21.56
2023-05-12T10:52:36.071Z,21.49
2023-05-12T10:54:41.121Z,21.43
2023-05-12T10:56:44.965Z,21.31
2023-05-12T10:59:13.605Z,21.28
2023-05-12T11:01:25.162Z,21.27
2023-05-12T11:03:27.517Z,21.20
2023-05-12T11:05:34.951Z,20.94
2023-05-12T11:07:37.578Z,21.32
2023-05-12T11:09:53.081Z,21.06
2023-05-12T11:12:00.519Z,20.99
2023-05-12T11:14:02.432Z,20.94
2023-05-12T11:16:04.354Z,20.57
2023-05-12T11:18:06.128Z,20.39
2023-05-12T11:20:09.901Z,20.24
2023-05-12T11:22:12.685Z,20.35
2023-05-12T11:24:14.639Z,20.42
2023-05-12T11:26:19.380Z,20.85
2023-05-12T11:28:21.071Z,20.95
2023-05-12T11:30:22.753Z,21.13
2023-05-12T11:32:24.306Z,21.50
2023-05-12T11:34:27.315Z,21.74
2023-05-12T11:36:28.815Z,21.72
2023-05-12T11:38:30.365Z,21.64
2023-05-12T11:40:31.889Z,21.71
2023-05-12T11:42:33.435Z,21.51
2023-05-12T11:44:35.623Z,21.93
2023-05-12T11:46:40.205Z,22.08
2023-05-12T11:48:41.803Z,21.84
2023-05-12T11:50:47.598Z,21.95
2023-05-12T11:52:49.886Z,21.83
2023-05-12T11:54:52.397Z,22.05
2023-05-12T11:56:55.377Z,21.81
2023-05-12T11:58:58.446Z,21.91
2023-05-12T12:01:10.612Z,22.07
2023-05-12T12:03:14.097Z,22.17
2023-05-12T12:05:19.655Z,22.19
2023-05-12T12:07:34.569Z,22.17
2023-05-12T12:09:40.871Z,21.77
2023-05-12T12:11:42.402Z,21.76
2023-05-12T12:16:30.517Z,21.87
2023-05-12T12:18:32.222Z,22.35
2023-05-12T12:20:33.855Z,22.07
2023-05-12T12:22:35.496Z,22.61
2023-05-12T12:24:37.030Z,22.72
2023-05-12T12:26:39.638Z,22.29
2023-05-12T12:28:41.285Z,22.51
2023-05-12T12:30:43.149Z,22.56
2023-05-12T12:32:46.149Z,22.34
2023-05-12T12:34:49.107Z,22.27
2023-05-12T12:36:51.779Z,22.67
2023-05-12T12:38:53.504Z,22.56
2023-05-12T12:40:55.064Z,22.58
2023-05-12T12:42:56.920Z,22.44
2023-05-12T12:44:58.472Z,22.62
2023-05-12T12:47:00.214Z,22.58
2023-05-12T12:49:01.789Z,22.58
2023-05-12T12:51:03.509Z,22.31
2023-05-12T12:53:05.258Z,22.33
2023-05-12T12:55:07.307Z,22.68
2023-05-12T12:57:08.832Z,22.55
2023-05-12T12:59:10.442Z,22.14
2023-05-12T13:01:12.069Z,22.25
2023-05-12T13:03:13.682Z,21.95
2023-05-12T13:05:16.331Z,21.80
2023-05-12T13:07:17.949Z,21.60
2023-05-12T13:09:20.218Z,21.25
2023-05-12T13:11:21.904Z,20.92
2023-05-12T13:13:24.533Z,20.71
2023-05-12T13:15:26.307Z,20.77
2023-05-12T13:17:28.467Z,20.73
2023-05-12T13:19:30.098Z,20.62
2023-05-12T13:21:31.599Z,20.43
2023-05-12T13:23:33.218Z,20.38
2023-05-12T13:25:34.765Z,20.39
2023-05-12T13:27:37.092Z,20.36
2023-05-12T13:29:39.728Z,20.34
2023-05-12T13:31:42.658Z,20.43
2023-05-12T13:33:44.227Z,20.60
2023-05-12T13:35:45.735Z,20.62
2023-05-12T13:37:47.581Z,20.57
2023-05-12T13:39:49.210Z,20.50
2023-05-12T13:41:51.236Z,20.47
2023-05-12T13:43:52.759Z,20.50
2023-05-12T13:45:54.356Z,20.23
2023-05-12T13:47:55.915Z,20.42
2023-05-12T13:49:57.546Z,20.58
2023-05-12T13:51:59.113Z,20.75
2023-05-12T13:54:00.669Z,21.10
2023-05-12T13:56:02.224Z,21.60
2023-05-12T13:58:04.025Z,21.83
2023-05-12T14:00:08.381Z,22.33
2023-05-12T14:02:11.957Z,22.62
2023-05-12T14:04:14.361Z,22.78
2023-05-12T14:06:15.888Z,23.19
2023-05-12T14:08:17.466Z,23.22
2023-05-12T14:10:19.140Z,23.28
2023-05-12T14:12:20.696Z,23.71
2023-05-12T14:14:22.191Z,23.46
2023-05-12T14:16:23.767Z,23.01
2023-05-12T14:18:26.072Z,22.54
2023-05-12T14:20:27.614Z,22.19
2023-05-12T14:22:29.101Z,21.97
2023-05-12T14:24:30.632Z,21.78
2023-05-12T14:26:32.466Z,21.43
2023-05-12T14:28:34.344Z,21.12
2023-05-12T14:30:37.370Z,20.93
2023-05-12T14:32:39.036Z,20.72
2023-05-12T14:34:40.758Z,20.66
2023-05-12T14:36:42.292Z,20.39
2023-05-12T14:38:43.844Z,20.02
2023-05-12T14:40:47.407Z,19.96
2023-05-12T14:42:48.997Z,19.81
2023-05-12T14:44:50.557Z,19.72
2023-05-12T14:46:52.092Z,19.89
2023-05-12T14:48:53.617Z,19.95
2023-05-12T14:50:56.630Z,20.02
2023-05-12T14:52:58.498Z,20.00
2023-05-12T14:54:59.995Z,19.93
2023-05-12T14:57:01.535Z,19.84
2023-05-12T14:59:04.161Z,19.58
2023-05-12T15:01:08.736Z,19.59
2023-05-12T15:03:11.603Z,19.48
2023-05-12T15:05:14.120Z,19.54
2023-05-12T15:07:15.625Z,19.53
2023-05-12T15:09:17.387Z,19.89
2023-05-12T15:11:18.936Z,20.69
2023-05-12T15:13:22.547Z,20.63
2023-05-12T15:15:24.169Z,21.29
2023-05-12T15:17:27.255Z,22.28
2023-05-12T15:19:28.846Z,21.25
2023-05-12T15:21:30.783Z,20.98
2023-05-12T15:23:32.404Z,20.78
2023-05-12T15:25:33.977Z,21.19
2023-05-12T15:27:35.549Z,28.29
2023-05-12T15:29:41.417Z,28.22
2023-05-12T15:31:42.988Z,30.21
2023-05-12T15:33:44.592Z,26.52
2023-05-12T15:35:46.119Z,24.59
2023-05-12T15:37:47.631Z,23.75
2023-05-12T15:39:51.080Z,23.39
2023-05-12T15:41:53.227Z,22.71
2023-05-12T15:43:54.747Z,22.36
2023-05-12T15:45:57.080Z,21.98
2023-05-12T15:47:59.004Z,21.65
2023-05-12T15:50:00.735Z,21.46
2023-05-12T15:52:02.551Z,21.30
2023-05-12T15:54:05.282Z,21.15
2023-05-12T15:56:08.834Z,21.01
2023-05-12T15:58:10.419Z,21.04
2023-05-12T16:00:12.847Z,20.97
2023-05-12T16:02:14.537Z,21.22
2023-05-12T16:04:16.238Z,21.23
2023-05-12T16:06:17.983Z,21.26
2023-05-12T16:08:20.402Z,21.05
2023-05-12T16:10:22.109Z,21.34
2023-05-12T16:12:23.653Z,21.64
2023-05-12T16:14:25.604Z,22.05
2023-05-12T16:16:27.250Z,24.15
2023-05-12T16:18:32.044Z,25.99
2023-05-12T16:20:33.763Z,30.32
2023-05-12T16:22:35.351Z,26.40
2023-05-12T16:24:37.404Z,24.65
2023-05-12T16:26:39.057Z,24.05
2023-05-12T16:28:40.679Z,23.73
2023-05-12T16:30:42.200Z,23.82
2023-05-12T16:32:44.305Z,24.64
2023-05-12T16:34:45.929Z,24.74
2023-05-12T16:36:47.497Z,24.50
2023-05-12T16:38:49.062Z,23.72
2023-05-12T16:40:50.854Z,23.58
2023-05-12T16:42:52.733Z,23.66
2023-05-12T16:44:57.312Z,23.49
2023-05-12T16:46:58.838Z,23.11
2023-05-12T16:49:00.364Z,22.94
2023-05-12T16:51:12.423Z,22.75
2023-05-12T16:53:13.944Z,22.81
2023-05-12T16:55:15.525Z,22.65
2023-05-12T16:57:17.120Z,22.44
2023-05-12T16:59:18.627Z,22.08
2023-05-12T17:01:20.199Z,22.07
2023-05-12T17:03:22.850Z,22.07
2023-05-12T17:05:24.690Z,22.26
2023-05-12T17:07:26.494Z,22.11
2023-05-12T17:09:28.082Z,22.12
2023-05-12T17:11:29.660Z,22.03
2023-05-12T17:13:31.264Z,21.81
2023-05-12T17:15:32.787Z,21.66
2023-05-12T17:17:34.625Z,21.55
2023-05-12T17:19:41.722Z,21.59
2023-05-12T17:21:43.478Z,21.39
2023-05-12T17:23:45.734Z,21.01
2023-05-12T17:25:47.331Z,21.00
2023-05-12T17:27:49.397Z,20.86
2023-05-12T17:29:50.939Z,20.46
2023-05-12T17:31:52.753Z,20.49
2023-05-12T17:33:54.453Z,20.20
2023-05-12T17:36:10.958Z,20.37
2023-05-12T17:38:14.234Z,20.31
2023-05-12T17:40:17.902Z,20.22
2023-05-12T17:42:19.565Z,19.99
2023-05-12T17:44:21.600Z,19.91
2023-05-12T17:46:23.315Z,19.90
2023-05-12T17:48:26.424Z,19.90
2023-05-12T17:50:28.001Z,20.03
2023-05-12T17:52:29.651Z,20.09
2023-05-12T17:54:31.578Z,19.98
2023-05-12T17:56:33.130Z,19.73
2023-05-12T17:58:34.735Z,19.75
2023-05-12T18:00:37.992Z,19.72
2023-05-12T18:02:41.892Z,19.70
2023-05-12T18:04:43.711Z,19.50
2023-05-12T18:06:50.025Z,19.57
2023-05-12T18:08:52.274Z,19.26
2023-05-12T18:10:53.851Z,19.32
2023-05-12T18:12:55.682Z,19.27
2023-05-12T18:14:57.240Z,19.23
2023-05-12T18:16:59.030Z,19.02
2023-05-12T18:19:00.954Z,18.96
2023-05-12T18:21:02.862Z,18.88
2023-05-12T18:23:04.616Z,18.71
2023-05-12T18:25:06.771Z,18.53
2023-05-12T18:27:08.337Z,18.35
2023-05-12T18:29:10.024Z,18.36
2023-05-12T18:33:16.252Z,18.11
2023-05-12T18:35:18.024Z,18.05
2023-05-12T18:37:20.111Z,17.92
2023-05-12T18:39:22.550Z,17.89
2023-05-12T18:41:24.107Z,17.78
2023-05-12T18:43:25.778Z,17.74
2023-05-12T18:45:27.416Z,17.74
2023-05-12T18:47:29.042Z,17.63
2023-05-12T18:49:30.744Z,17.59
2023-05-12T18:51:32.801Z,17.51
2023-05-12T18:53:34.318Z,17.37
2023-05-12T18:55:35.947Z,17.25
2023-05-12T18:57:37.451Z,17.19
2023-05-12T18:59:39.025Z,17.14
2023-05-12T19:01:40.634Z,17.04
2023-05-12T19:03:42.206Z,16.92
2023-05-12T19:05:46.355Z,16.88
2023-05-12T19:07:47.972Z,16.81
2023-05-12T19:09:49.605Z,16.76
2023-05-12T19:11:51.366Z,16.67
2023-05-12T19:13:52.991Z,16.62
2023-05-12T19:15:54.550Z,16.54
2023-05-12T19:17:56.255Z,16.48
2023-05-12T19:19:57.834Z,16.41
2023-05-12T19:21:59.584Z,16.32
2023-05-12T19:24:01.453Z,16.23
2023-05-12T19:26:03.099Z,16.17
2023-05-12T19:28:04.912Z,16.09
2023-05-12T19:30:07.168Z,16.05
2023-05-12T19:32:09.040Z,16.07
2023-05-12T19:34:10.825Z,15.97
2023-05-12T19:36:12.417Z,15.94
2023-05-12T19:38:14.256Z,15.87
2023-05-12T19:40:15.835Z,15.81
2023-05-12T19:42:17.389Z,15.75
2023-05-12T19:44:19.102Z,15.71
2023-05-12T19:46:21.016Z,15.65
2023-05-12T19:48:22.606Z,15.53
2023-05-12T19:50:24.138Z,15.53
2023-05-12T19:52:25.744Z,15.47
2023-05-12T19:54:27.406Z,15.39
2023-05-12T19:56:29.624Z,15.29
2023-05-12T19:58:31.152Z,15.20
2023-05-12T20:00:32.746Z,15.10
2023-05-12T20:02:34.345Z,15.04
2023-05-12T20:04:35.901Z,14.99
2023-05-12T20:06:37.536Z,14.94
2023-05-12T20:08:39.060Z,14.87
2023-05-12T20:10:40.598Z,14.77
2023-05-12T20:12:42.200Z,14.70
2023-05-12T20:14:43.763Z,14.61
2023-05-12T20:16:45.399Z,14.58
2023-05-12T20:18:47.029Z,14.48
2023-05-12T20:20:48.900Z,14.46
2023-05-12T20:22:50.445Z,14.38
2023-05-12T20:24:52.035Z,14.32
2023-05-12T20:26:54.073Z,14.23
2023-05-12T20:28:55.592Z,14.18
2023-05-12T20:30:57.222Z,14.11
2023-05-12T20:32:58.822Z,14.10
2023-05-12T20:35:00.419Z,14.03
2023-05-12T20:37:02.042Z,13.96
2023-05-12T20:39:07.093Z,13.92
2023-05-12T20:41:09.133Z,13.82
2023-05-12T20:43:10.814Z,13.76
2023-05-12T20:45:13.462Z,13.75
2023-05-12T20:47:15.063Z,13.68
2023-05-12T20:49:16.722Z,13.66
2023-05-12T20:51:18.298Z,13.61
2023-05-12T20:53:19.888Z,13.52
2023-05-12T20:55:21.542Z,13.46
2023-05-12T20:57:23.318Z,13.36
2023-05-12T20:59:24.888Z,13.34
2023-05-12T21:01:26.481Z,13.25
2023-05-12T21:03:28.192Z,13.19
2023-05-12T21:05:30.194Z,13.11
2023-05-12T21:07:32.084Z,13.07
2023-05-12T21:09:33.736Z,13.04
2023-05-12T21:11:35.341Z,13.01
2023-05-12T21:13:36.947Z,12.95
2023-05-12T21:15:38.454Z,12.90
2023-05-12T21:17:40.965Z,12.87
2023-05-12T21:19:44.002Z,12.89
2023-05-12T21:21:45.734Z,12.85
2023-05-12T21:23:47.309Z,12.87
2023-05-12T21:25:49.173Z,12.84
2023-05-12T21:27:51.825Z,12.86
2023-05-12T21:29:53.318Z,12.82
2023-05-12T21:31:54.863Z,12.79
2023-05-12T21:33:56.453Z,12.77
2023-05-12T21:35:58.645Z,12.74
2023-05-12T21:38:00.225Z,12.75
2023-05-12T21:40:02.119Z,12.73
2023-05-12T21:42:03.932Z,12.76
2023-05-12T21:44:10.998Z,12.67
2023-05-12T21:46:12.825Z,12.64
2023-05-12T21:48:15.108Z,12.59
2023-05-12T21:50:17.757Z,12.48
2023-05-12T21:52:19.334Z,12.43
2023-05-12T21:54:20.962Z,12.40
2023-05-12T21:56:23.059Z,12.34
2023-05-12T21:58:24.697Z,12.29
2023-05-12T22:00:26.314Z,12.28
2023-05-12T22:02:27.838Z,12.24
2023-05-12T22:04:29.365Z,12.21
2023-05-12T22:06:31.170Z,12.16
2023-05-12T22:08:32.784Z,12.10
2023-05-12T22:10:34.323Z,12.08
2023-05-12T22:12:35.934Z,12.04
2023-05-12T22:14:37.828Z,11.98
2023-05-12T22:16:42.156Z,12.02
2023-05-12T22:18:44.558Z,12.02
2023-05-12T22:20:46.462Z,12.06
2023-05-12T22:22:48.013Z,12.02
2023-05-12T22:24:49.641Z,12.02
2023-05-12T22:26:51.204Z,12.01
2023-05-12T22:28:52.746Z,12.01
2023-05-12T22:30:54.277Z,11.99
2023-05-12T22:32:56.314Z,11.98
2023-05-12T22:34:57.934Z,11.94
2023-05-12T22:36:59.524Z,11.88
2023-05-12T22:39:01.134Z,11.86
2023-05-12T22:41:02.655Z,11.79
2023-05-12T22:43:04.316Z,11.74
2023-05-12T22:45:06.967Z,11.70
2023-05-12T22:47:08.773Z,11.69
2023-05-12T22:49:10.379Z,11.65
2023-05-12T22:51:11.929Z,11.60
2023-05-12T22:53:13.982Z,11.56
2023-05-12T22:55:15.530Z,11.51
2023-05-12T22:57:17.078Z,11.47
2023-05-12T22:59:18.616Z,11.45
2023-05-12T23:01:20.200Z,11.44
2023-05-12T23:03:21.787Z,11.41
2023-05-12T23:05:23.439Z,11.35
2023-05-12T23:07:24.949Z,11.31
2023-05-12T23:09:26.469Z,11.29
2023-05-12T23:11:28.000Z,11.21
2023-05-12T23:13:29.826Z,11.21
2023-05-12T23:15:31.421Z,11.16
2023-05-12T23:17:33.277Z,11.12
2023-05-12T23:19:35.378Z,11.09
2023-05-12T23:21:36.913Z,11.07
2023-05-12T23:23:38.438Z,11.04
2023-05-12T23:25:41.814Z,11.00
2023-05-12T23:27:43.349Z,10.96
2023-05-12T23:29:44.931Z,10.91
2023-05-12T23:31:46.537Z,10.85
2023-05-12T23:33:48.190Z,10.83
2023-05-12T23:35:49.809Z,10.82
2023-05-12T23:37:51.418Z,10.79
2023-05-12T23:39:52.948Z,10.75
2023-05-12T23:41:54.454Z,10.74
2023-05-12T23:43:56.049Z,10.69
2023-05-12T23:45:58.225Z,10.71
2023-05-12T23:48:00.511Z,10.68
2023-05-12T23:50:02.166Z,10.67
2023-05-12T23:52:03.906Z,10.63
2023-05-12T23:54:05.672Z,10.61
2023-05-12T23:56:07.844Z,10.57
2023-05-12T23:58:10.760Z,10.56
